Startpagina
METAR-TAF:

METAR-TAF

Vliegvelden :

Port of Spain, Trinidad, Trinidad en Tobago

breedte: 10-37N, lengte: 061-21W, hoogte: 12 m

Actueel weer

Dit bericht is 26 minuten geleden gemaakt, om 23:00 UTC
Wind 6 kt uit het oostzuidoosten
Temperatuur 26°C
Vochtigheid 84%
Druk 1013 hPa
Zicht 10 km of meer
Weinig wolken op 1700 ft

METAR: TTPP 192300Z 11006KT 9999 FEW017 26/23 Q1013 NOSIG

Tijdstip: 19:26 (23:26 UTC)

Verwachting

Dit bericht is 7 uur en het 26 minuten geleden gemaakt, om 16:00 UTC
Verwachting geldig van 19 om 18 UTC tot 20 om 18 UTC
Wind 12 kt uit het oostzuidoosten
Zicht 10 km of meer
Weinig wolken op 1800 ft
Wijzigt naar
van 20 om 00 UTC tot 20 om 02 UTC
Wind 5 kt uit het oosten
Wijzigt naar
van 20 om 12 UTC tot 20 om 14 UTC
Wind 12 kt uit het oosten

TAF: TTPP 191600Z 1918/2018 11012KT 9999 FEW018 BECMG 2000/2002 10005KT BECMG 2012/2014 10012KT

Waarnemingen en weersverwachtingen van meer dan 4000 vliegvelden (METAR en TAF).

De beschikbare stations zijn de gele en rode punten op de kaart.

Ga met uw muis naar het station om de naam te zien.

Klik dan om waarnemingen en weersverwachtingen te zien.

kaart wijzigen: klik op de groene knoppen met een zwart kruis om in te zoomen, op de groene knop met een streepje om uit te zoomen of op de groene pijlen voor aangrenzende kaarten.


METAR-TAF: